createdAt,value
2022-08-17T00:00:42.626Z,63.60
2022-08-17T00:03:10.943Z,63.50
2022-08-17T00:05:46.962Z,63.54
2022-08-17T00:08:15.952Z,63.38
2022-08-17T00:10:44.711Z,63.73
2022-08-17T00:13:25.355Z,64.11
2022-08-17T00:15:55.908Z,63.99
2022-08-17T00:19:06.037Z,64.06
2022-08-17T00:21:12.352Z,64.19
2022-08-17T00:23:44.461Z,64.24
2022-08-17T00:26:43.180Z,64.26
2022-08-17T00:29:08.046Z,64.46
2022-08-17T00:31:37.104Z,64.68
2022-08-17T00:34:06.237Z,64.54
2022-08-17T00:36:34.497Z,64.72
2022-08-17T00:39:03.262Z,64.96
2022-08-17T00:41:31.391Z,64.99
2022-08-17T00:44:02.517Z,64.97
2022-08-17T00:46:39.703Z,64.86
2022-08-17T00:49:08.192Z,64.67
2022-08-17T00:52:11.619Z,64.87
2022-08-17T00:54:42.611Z,64.66
2022-08-17T00:57:17.595Z,64.60
2022-08-17T00:59:47.210Z,64.36
2022-08-17T01:02:34.321Z,64.18
2022-08-17T01:05:18.436Z,64.27
2022-08-17T01:07:48.014Z,64.45
2022-08-17T01:11:00.476Z,64.11
2022-08-17T01:13:05.683Z,64.33
2022-08-17T01:15:37.599Z,64.26
2022-08-17T01:18:08.071Z,64.25
2022-08-17T01:20:48.002Z,64.42
2022-08-17T01:23:20.399Z,64.35
2022-08-17T01:25:55.209Z,64.45
2022-08-17T01:28:52.785Z,64.38
2022-08-17T01:31:12.810Z,64.34
2022-08-17T01:33:40.855Z,64.30
2022-08-17T01:36:09.358Z,64.25
2022-08-17T01:38:38.461Z,64.17
2022-08-17T01:41:10.748Z,64.04
2022-08-17T01:43:47.675Z,63.91
2022-08-17T01:46:21.523Z,63.86
2022-08-17T01:48:51.573Z,63.61
2022-08-17T01:51:20.001Z,63.69
2022-08-17T01:53:50.531Z,63.44
2022-08-17T01:56:19.706Z,63.26
2022-08-17T01:58:47.970Z,63.39
2022-08-17T02:01:18.944Z,63.47
2022-08-17T02:03:59.309Z,63.32
2022-08-17T02:06:31.362Z,63.26
2022-08-17T02:09:16.473Z,63.18
2022-08-17T02:11:46.246Z,63.13
2022-08-17T02:14:14.925Z,63.06
2022-08-17T02:16:43.166Z,63.13
2022-08-17T02:19:13.606Z,63.22
2022-08-17T02:21:43.337Z,63.07
2022-08-17T02:24:13.252Z,63.13
2022-08-17T02:26:41.118Z,63.02
2022-08-17T02:29:09.053Z,62.91
2022-08-17T02:31:38.185Z,62.95
2022-08-17T02:34:06.712Z,62.76
2022-08-17T02:36:35.151Z,62.94
2022-08-17T02:39:04.706Z,62.98
2022-08-17T02:41:32.932Z,63.14
2022-08-17T02:44:01.399Z,63.24
2022-08-17T02:46:31.141Z,63.22
2022-08-17T02:48:59.717Z,63.15
2022-08-17T02:51:27.849Z,63.05
2022-08-17T02:54:02.089Z,62.92
2022-08-17T02:56:44.164Z,63.09
2022-08-17T02:59:12.264Z,63.11
2022-08-17T03:01:40.553Z,63.15
2022-08-17T03:04:08.477Z,63.13
2022-08-17T03:06:37.893Z,63.23
2022-08-17T03:09:05.948Z,63.40
2022-08-17T03:11:33.766Z,63.55
2022-08-17T03:14:02.001Z,63.35
2022-08-17T03:16:29.991Z,63.40
2022-08-17T03:18:58.272Z,63.40
2022-08-17T03:21:26.347Z,63.35
2022-08-17T03:23:54.619Z,63.48
2022-08-17T03:26:23.052Z,63.61
2022-08-17T03:28:51.196Z,63.70
2022-08-17T03:31:19.016Z,63.85
2022-08-17T03:33:47.048Z,63.74
2022-08-17T03:36:15.332Z,63.78
2022-08-17T03:38:43.549Z,63.87
2022-08-17T03:41:14.002Z,63.75
2022-08-17T03:43:42.573Z,63.77
2022-08-17T03:46:35.265Z,63.73
2022-08-17T03:49:25.975Z,63.86
2022-08-17T03:52:13.514Z,63.73
2022-08-17T03:55:01.146Z,63.60
2022-08-17T03:57:29.769Z,63.56
2022-08-17T03:59:57.895Z,63.42
2022-08-17T04:02:27.885Z,63.34
2022-08-17T04:04:56.459Z,63.41
2022-08-17T04:07:25.895Z,63.59
2022-08-17T04:09:53.918Z,63.46
2022-08-17T04:12:22.935Z,63.33
2022-08-17T04:14:54.736Z,63.20
2022-08-17T04:17:24.831Z,63.18
2022-08-17T04:19:53.778Z,63.25
2022-08-17T04:22:31.045Z,63.21
2022-08-17T04:25:21.889Z,63.30
2022-08-17T04:27:49.801Z,63.21
2022-08-17T04:30:17.971Z,63.14
2022-08-17T04:33:05.487Z,63.06
2022-08-17T04:35:42.709Z,62.84
2022-08-17T04:38:12.332Z,62.55
2022-08-17T04:40:58.737Z,62.38
2022-08-17T04:43:27.625Z,62.05
2022-08-17T04:45:57.302Z,61.86
2022-08-17T04:48:29.727Z,61.64
2022-08-17T04:51:14.912Z,61.09
2022-08-17T04:53:45.302Z,60.49
2022-08-17T04:56:19.289Z,59.92
2022-08-17T04:58:48.398Z,59.64
2022-08-17T05:01:23.195Z,59.20
2022-08-17T05:03:54.004Z,58.89
2022-08-17T05:06:22.501Z,58.81
2022-08-17T05:08:50.652Z,58.67
2022-08-17T05:11:18.834Z,58.46
2022-08-17T05:13:50.185Z,58.48
2022-08-17T05:16:18.767Z,58.41
2022-08-17T05:18:47.363Z,58.50
2022-08-17T05:21:16.069Z,58.30
2022-08-17T05:23:44.818Z,58.24
2022-08-17T05:26:25.980Z,58.05
2022-08-17T05:29:00.656Z,58.21
2022-08-17T05:31:31.388Z,57.79
2022-08-17T05:33:59.774Z,57.55
2022-08-17T05:36:43.021Z,57.23
2022-08-17T05:39:16.861Z,56.94
2022-08-17T05:41:46.033Z,56.61
2022-08-17T05:44:14.037Z,55.82
2022-08-17T05:46:44.854Z,55.27
2022-08-17T05:49:15.241Z,54.64
2022-08-17T05:51:52.543Z,54.35
2022-08-17T05:54:26.398Z,53.98
2022-08-17T05:56:57.502Z,54.10
2022-08-17T05:59:34.899Z,53.81
2022-08-17T06:02:06.486Z,53.73
2022-08-17T06:04:34.298Z,53.24
2022-08-17T06:07:08.958Z,52.47
2022-08-17T06:09:41.996Z,52.49
2022-08-17T06:12:25.005Z,52.08
2022-08-17T06:14:59.251Z,52.14
2022-08-17T06:17:27.953Z,52.19
2022-08-17T06:20:16.189Z,51.36
2022-08-17T06:22:46.782Z,51.33
2022-08-17T06:25:30.689Z,50.76
2022-08-17T06:28:14.322Z,50.14
2022-08-17T06:31:00.935Z,50.09
2022-08-17T06:33:35.659Z,50.25
2022-08-17T06:36:15.935Z,50.33
2022-08-17T06:39:09.347Z,49.82
2022-08-17T06:41:56.088Z,50.22
2022-08-17T06:44:44.749Z,49.96
2022-08-17T06:47:13.669Z,49.56
2022-08-17T06:49:55.569Z,49.45
2022-08-17T06:52:45.932Z,48.97
2022-08-17T06:55:20.317Z,48.31
2022-08-17T06:57:51.105Z,48.45
2022-08-17T07:00:20.719Z,47.88
2022-08-17T07:03:07.600Z,47.62
2022-08-17T07:05:39.725Z,47.27
2022-08-17T07:08:14.610Z,47.35
2022-08-17T07:10:52.624Z,47.72
2022-08-17T07:13:20.277Z,47.13
2022-08-17T07:15:54.028Z,47.27
2022-08-17T07:18:26.924Z,47.05
2022-08-17T07:20:59.443Z,46.80
2022-08-17T07:23:38.742Z,46.72
2022-08-17T07:26:08.051Z,46.49
2022-08-17T07:28:37.002Z,46.25
2022-08-17T07:31:05.121Z,45.54
2022-08-17T07:33:34.072Z,44.72
2022-08-17T07:36:03.510Z,44.11
2022-08-17T07:38:33.119Z,43.83
2022-08-17T07:41:05.483Z,43.14
2022-08-17T07:43:33.204Z,42.97
2022-08-17T07:46:24.525Z,43.10
2022-08-17T07:48:54.097Z,43.06
2022-08-17T07:51:26.971Z,42.58
2022-08-17T07:54:12.892Z,42.58
2022-08-17T07:56:47.662Z,42.48
2022-08-17T07:59:23.078Z,42.25
2022-08-17T08:01:57.616Z,42.09
2022-08-17T08:04:49.922Z,41.87
2022-08-17T08:07:26.843Z,41.11
2022-08-17T08:10:00.956Z,40.47
2022-08-17T08:12:34.223Z,40.52
2022-08-17T08:15:18.945Z,39.67
2022-08-17T08:17:50.332Z,39.10
2022-08-17T08:20:37.850Z,38.97
2022-08-17T08:23:15.614Z,39.08
2022-08-17T08:25:53.692Z,38.84
2022-08-17T08:28:27.315Z,38.15
2022-08-17T08:30:59.979Z,38.14
2022-08-17T08:33:39.845Z,38.80
2022-08-17T08:36:56.938Z,38.31
2022-08-17T08:39:31.674Z,38.15
2022-08-17T08:42:02.500Z,37.68
2022-08-17T08:45:00.177Z,37.47
2022-08-17T08:47:48.643Z,37.86
2022-08-17T08:50:38.520Z,37.59
2022-08-17T08:53:12.658Z,37.55
2022-08-17T08:55:47.650Z,37.48
2022-08-17T08:58:41.630Z,36.96
2022-08-17T09:01:24.893Z,36.43
2022-08-17T09:04:21.347Z,36.83
2022-08-17T09:06:58.272Z,36.86
2022-08-17T09:09:26.133Z,36.61
2022-08-17T09:12:02.362Z,36.63
2022-08-17T09:14:31.457Z,36.21
2022-08-17T09:17:15.168Z,35.76
2022-08-17T09:19:56.413Z,35.59
2022-08-17T09:22:45.008Z,35.67
2022-08-17T09:25:20.756Z,35.57
2022-08-17T09:27:54.965Z,35.74
2022-08-17T09:30:23.750Z,35.68
2022-08-17T09:32:55.554Z,35.58
2022-08-17T09:35:25.200Z,35.54
2022-08-17T09:38:07.642Z,34.87
2022-08-17T09:40:47.121Z,34.99
2022-08-17T09:43:24.984Z,35.15
2022-08-17T09:45:57.327Z,34.56
2022-08-17T09:48:41.392Z,34.59
2022-08-17T09:51:23.086Z,34.39
2022-08-17T09:53:51.098Z,33.89
2022-08-17T09:56:21.689Z,33.17
2022-08-17T09:59:08.306Z,34.07
2022-08-17T10:01:43.842Z,33.97
2022-08-17T10:04:20.234Z,33.46
2022-08-17T10:07:07.475Z,33.51
2022-08-17T10:09:41.415Z,33.12
2022-08-17T10:12:30.120Z,33.12
2022-08-17T10:14:58.028Z,33.33
2022-08-17T10:17:45.650Z,33.31
2022-08-17T10:20:20.604Z,32.54
2022-08-17T10:23:07.044Z,32.68
2022-08-17T10:25:56.067Z,32.98
2022-08-17T10:28:29.811Z,33.19
2022-08-17T10:31:23.179Z,33.00
2022-08-17T10:33:57.779Z,32.96
2022-08-17T10:36:33.427Z,32.41
2022-08-17T10:39:16.024Z,32.68
2022-08-17T10:41:46.769Z,31.85
2022-08-17T10:44:36.935Z,31.30
2022-08-17T10:47:08.606Z,31.03
2022-08-17T10:49:38.523Z,31.14
2022-08-17T10:52:26.583Z,31.12
2022-08-17T10:54:58.398Z,31.06
2022-08-17T10:57:26.985Z,31.48
2022-08-17T10:59:58.386Z,31.31
2022-08-17T11:02:31.514Z,30.96
2022-08-17T11:05:19.996Z,30.60
2022-08-17T11:08:06.829Z,30.37
2022-08-17T11:10:37.357Z,30.10
2022-08-17T11:13:08.589Z,30.46
2022-08-17T11:15:58.756Z,29.54
2022-08-17T11:18:27.333Z,29.58
2022-08-17T11:20:55.322Z,29.39
2022-08-17T11:23:36.084Z,29.40
2022-08-17T11:26:18.228Z,29.39
2022-08-17T11:28:52.488Z,29.18
2022-08-17T11:31:37.995Z,29.05
2022-08-17T11:34:21.654Z,28.77
2022-08-17T11:36:52.672Z,28.35
2022-08-17T11:39:38.951Z,28.40
2022-08-17T11:42:25.878Z,28.62
2022-08-17T11:44:56.942Z,28.60
2022-08-17T11:48:29.604Z,28.81
2022-08-17T11:51:18.712Z,28.60
2022-08-17T11:53:46.825Z,28.36
2022-08-17T11:56:41.565Z,28.98
2022-08-17T11:59:27.902Z,29.14
2022-08-17T12:01:57.153Z,28.66
2022-08-17T12:04:27.973Z,28.59
2022-08-17T12:07:00.120Z,28.65
2022-08-17T12:09:31.146Z,28.44
2022-08-17T12:12:35.576Z,28.64
2022-08-17T12:15:10.714Z,28.72
2022-08-17T12:17:52.057Z,28.67
2022-08-17T12:20:24.558Z,28.22
2022-08-17T12:23:07.222Z,28.22
2022-08-17T12:25:35.011Z,28.04
2022-08-17T12:28:06.458Z,28.14
2022-08-17T12:30:37.078Z,28.30
2022-08-17T12:33:11.091Z,28.32
2022-08-17T12:35:39.097Z,28.67
2022-08-17T12:38:26.778Z,27.99
2022-08-17T12:40:58.370Z,27.63
2022-08-17T12:43:31.521Z,27.28
2022-08-17T12:46:15.326Z,27.83
2022-08-17T12:48:58.869Z,27.65
2022-08-17T12:51:29.353Z,28.10
2022-08-17T12:53:57.592Z,27.89
2022-08-17T12:56:25.768Z,27.30
2022-08-17T12:58:55.136Z,27.06
2022-08-17T13:01:25.290Z,26.42
2022-08-17T13:03:55.562Z,25.91
2022-08-17T13:06:33.847Z,25.76
2022-08-17T13:09:09.307Z,26.26
2022-08-17T13:11:46.151Z,26.07
2022-08-17T13:14:15.599Z,26.15
2022-08-17T13:16:48.006Z,26.11
2022-08-17T13:19:17.283Z,25.83
2022-08-17T13:21:54.302Z,25.62
2022-08-17T13:24:28.030Z,25.93
2022-08-17T13:27:02.049Z,25.59
2022-08-17T13:29:45.437Z,24.70
2022-08-17T13:32:19.918Z,24.95
2022-08-17T13:35:14.846Z,24.89
2022-08-17T13:37:37.506Z,25.07
2022-08-17T13:40:09.349Z,25.36
2022-08-17T13:42:51.458Z,25.52
2022-08-17T13:45:35.493Z,25.26
2022-08-17T13:48:05.438Z,25.41
2022-08-17T13:50:33.944Z,25.64
2022-08-17T13:53:01.828Z,25.33
2022-08-17T13:55:32.188Z,25.07
2022-08-17T13:58:07.180Z,25.51
2022-08-17T14:00:36.647Z,25.68
2022-08-17T14:03:09.443Z,25.77
2022-08-17T14:05:39.332Z,25.75
2022-08-17T14:08:07.482Z,26.04
2022-08-17T14:10:36.733Z,25.88
2022-08-17T14:13:05.746Z,25.86
2022-08-17T14:15:54.760Z,26.19
2022-08-17T14:18:50.571Z,26.15
2022-08-17T14:21:09.977Z,26.06
2022-08-17T14:23:38.582Z,25.87
2022-08-17T14:26:06.696Z,25.92
2022-08-17T14:28:35.416Z,25.80
2022-08-17T14:31:06.726Z,25.71
2022-08-17T14:33:35.328Z,25.67
2022-08-17T14:36:03.590Z,25.70
2022-08-17T14:38:31.484Z,25.84
2022-08-17T14:40:59.465Z,25.68
2022-08-17T14:43:27.619Z,25.74
2022-08-17T14:45:55.346Z,25.73
2022-08-17T14:48:23.548Z,26.32
2022-08-17T14:50:51.584Z,26.57
2022-08-17T14:53:20.367Z,26.63
2022-08-17T14:55:50.313Z,26.34
2022-08-17T14:58:19.444Z,26.14
2022-08-17T15:00:49.955Z,26.17
2022-08-17T15:03:18.549Z,26.25
2022-08-17T15:05:47.164Z,26.42
2022-08-17T15:08:16.698Z,26.56
2022-08-17T15:10:44.954Z,26.40
2022-08-17T15:13:18.204Z,26.75
2022-08-17T15:15:46.811Z,27.07
2022-08-17T15:18:15.230Z,27.04
2022-08-17T15:20:43.466Z,27.06
2022-08-17T15:23:19.317Z,26.98
2022-08-17T15:25:48.161Z,27.04
2022-08-17T15:28:16.119Z,27.21
2022-08-17T15:30:45.030Z,26.56
2022-08-17T15:33:14.617Z,26.46
2022-08-17T15:35:45.275Z,27.02
2022-08-17T15:38:14.520Z,26.90
2022-08-17T15:40:44.687Z,26.45
2022-08-17T15:43:27.300Z,26.46
2022-08-17T15:46:01.168Z,26.60
2022-08-17T15:48:42.319Z,26.70
2022-08-17T15:51:30.009Z,26.78
2022-08-17T15:53:59.973Z,27.24
2022-08-17T15:56:33.045Z,27.27
2022-08-17T15:59:01.760Z,27.36
2022-08-17T16:03:01.358Z,27.73
2022-08-17T16:04:29.937Z,27.72
2022-08-17T16:06:59.479Z,27.53
2022-08-17T16:09:28.011Z,27.78
2022-08-17T16:11:56.700Z,28.07
2022-08-17T16:14:34.252Z,28.04
2022-08-17T16:17:04.750Z,27.96
2022-08-17T16:19:34.542Z,28.28
2022-08-17T16:22:03.066Z,28.01
2022-08-17T16:24:31.931Z,28.11
2022-08-17T16:27:00.106Z,28.14
2022-08-17T16:29:28.147Z,28.34
2022-08-17T16:31:57.361Z,28.58
2022-08-17T16:34:26.073Z,28.72
2022-08-17T16:36:56.528Z,28.53
2022-08-17T16:39:26.412Z,28.91
2022-08-17T16:41:56.390Z,29.44
2022-08-17T16:44:26.128Z,29.36
2022-08-17T16:46:53.957Z,29.47
2022-08-17T16:49:35.556Z,29.82
2022-08-17T16:52:06.910Z,29.67
2022-08-17T16:54:37.029Z,29.84
2022-08-17T16:57:05.448Z,29.90
2022-08-17T16:59:41.878Z,29.97
2022-08-17T17:02:13.973Z,30.49
2022-08-17T17:04:51.598Z,30.60
2022-08-17T17:07:34.168Z,30.93
2022-08-17T17:10:04.368Z,31.11
2022-08-17T17:13:02.570Z,30.78
2022-08-17T17:15:22.428Z,30.57
2022-08-17T17:17:52.248Z,30.39
2022-08-17T17:20:24.962Z,30.37
2022-08-17T17:23:08.172Z,30.35
2022-08-17T17:25:45.304Z,30.72
2022-08-17T17:28:16.972Z,32.09
2022-08-17T17:30:49.904Z,32.88
2022-08-17T17:33:19.831Z,32.86
2022-08-17T17:35:54.101Z,33.31
2022-08-17T17:38:23.965Z,33.63
2022-08-17T17:41:02.245Z,33.79
2022-08-17T17:43:40.043Z,34.61
2022-08-17T17:46:28.675Z,35.12
2022-08-17T17:48:57.781Z,35.17
2022-08-17T17:52:07.134Z,35.23
2022-08-17T17:54:32.742Z,35.04
2022-08-17T17:57:08.010Z,35.09
2022-08-17T17:59:39.264Z,35.11
2022-08-17T18:02:12.554Z,35.55
2022-08-17T18:04:48.914Z,35.89
2022-08-17T18:07:23.066Z,36.45
2022-08-17T18:09:54.162Z,36.60
2022-08-17T18:12:41.920Z,37.13
2022-08-17T18:15:10.236Z,37.22
2022-08-17T18:17:38.775Z,37.44
2022-08-17T18:20:07.136Z,36.90
2022-08-17T18:22:35.223Z,37.43
2022-08-17T18:25:22.869Z,38.09
2022-08-17T18:27:52.199Z,38.04
2022-08-17T18:30:20.313Z,37.98
2022-08-17T18:32:48.440Z,38.47
2022-08-17T18:35:18.919Z,38.79
2022-08-17T18:37:54.450Z,39.33
2022-08-17T18:40:28.148Z,39.11
2022-08-17T18:43:04.939Z,38.92
2022-08-17T18:45:36.024Z,39.21
2022-08-17T18:48:05.429Z,39.53
2022-08-17T18:50:41.663Z,39.52
2022-08-17T18:53:33.563Z,39.86
2022-08-17T18:56:17.649Z,40.19
2022-08-17T18:58:57.844Z,40.27
2022-08-17T19:01:52.065Z,40.43
2022-08-17T19:04:28.576Z,40.54
2022-08-17T19:07:25.326Z,40.68
2022-08-17T19:10:05.829Z,40.82
2022-08-17T19:12:48.627Z,41.03
2022-08-17T19:15:23.557Z,41.25
2022-08-17T19:17:59.847Z,41.47
2022-08-17T19:20:34.961Z,41.69
2022-08-17T19:23:11.017Z,42.12
2022-08-17T19:25:42.861Z,42.18
2022-08-17T19:28:21.872Z,42.29
2022-08-17T19:30:55.378Z,42.56
2022-08-17T19:33:23.624Z,42.54
2022-08-17T19:36:06.716Z,42.65
2022-08-17T19:38:44.882Z,42.78
2022-08-17T19:41:34.277Z,42.99
2022-08-17T19:44:02.328Z,43.13
2022-08-17T19:46:36.905Z,43.35
2022-08-17T19:49:33.438Z,43.42
2022-08-17T19:52:20.345Z,43.77
2022-08-17T19:54:57.841Z,44.26
2022-08-17T19:57:46.254Z,44.46
2022-08-17T20:00:16.358Z,44.81
2022-08-17T20:02:51.754Z,44.89
2022-08-17T20:05:19.995Z,45.22
2022-08-17T20:07:53.824Z,45.63
2022-08-17T20:10:39.978Z,46.19
2022-08-17T20:13:10.028Z,46.29
2022-08-17T20:15:40.677Z,46.52
2022-08-17T20:18:28.702Z,46.51
2022-08-17T20:20:56.798Z,46.82
2022-08-17T20:23:30.612Z,47.20
2022-08-17T20:26:30.610Z,47.26
2022-08-17T20:29:13.901Z,47.14
2022-08-17T20:31:46.078Z,47.41
2022-08-17T20:34:33.426Z,47.66
2022-08-17T20:37:10.649Z,47.77
2022-08-17T20:39:42.258Z,47.88
2022-08-17T20:42:30.623Z,47.93
2022-08-17T20:45:02.108Z,48.03
2022-08-17T20:47:35.576Z,48.18
2022-08-17T20:50:30.365Z,48.48
2022-08-17T20:53:02.809Z,48.38
2022-08-17T20:55:51.304Z,48.44
2022-08-17T20:58:30.547Z,48.26
2022-08-17T21:01:00.066Z,48.33
2022-08-17T21:03:27.843Z,48.43
2022-08-17T21:06:17.903Z,48.22
2022-08-17T21:09:04.393Z,48.47
2022-08-17T21:11:56.766Z,48.36
2022-08-17T21:14:25.878Z,48.49
2022-08-17T21:17:17.549Z,48.39
2022-08-17T21:20:12.683Z,48.41
2022-08-17T21:22:33.620Z,48.19
2022-08-17T21:25:08.281Z,48.07
2022-08-17T21:27:38.907Z,48.01
2022-08-17T21:30:10.259Z,47.90
2022-08-17T21:32:42.112Z,47.59
2022-08-17T21:35:19.434Z,47.58
2022-08-17T21:37:48.906Z,47.61
2022-08-17T21:40:28.447Z,47.58
2022-08-17T21:42:59.637Z,47.54
2022-08-17T21:45:38.137Z,47.62
2022-08-17T21:48:06.381Z,47.83
2022-08-17T21:50:34.374Z,47.82
2022-08-17T21:53:04.239Z,47.69
2022-08-17T21:55:34.352Z,47.73
2022-08-17T21:58:13.872Z,47.82
2022-08-17T22:00:44.728Z,47.96
2022-08-17T22:03:23.638Z,48.04
2022-08-17T22:05:51.854Z,48.39
2022-08-17T22:08:22.104Z,48.42
2022-08-17T22:10:51.415Z,48.62
2022-08-17T22:13:19.735Z,48.86
2022-08-17T22:16:27.705Z,48.95
2022-08-17T22:18:58.221Z,49.08
2022-08-17T22:21:26.529Z,49.29
2022-08-17T22:24:05.006Z,49.43
2022-08-17T22:26:52.112Z,49.60
2022-08-17T22:29:39.031Z,49.77
2022-08-17T22:32:06.935Z,49.89
2022-08-17T22:34:35.251Z,50.26
2022-08-17T22:37:27.381Z,50.33
2022-08-17T22:39:59.680Z,50.45
2022-08-17T22:42:28.966Z,50.49
2022-08-17T22:44:56.877Z,50.47
2022-08-17T22:47:31.284Z,50.58
2022-08-17T22:50:00.513Z,50.62
2022-08-17T22:52:56.336Z,50.89
2022-08-17T22:55:43.458Z,50.97
2022-08-17T22:58:40.323Z,51.05
2022-08-17T23:01:26.469Z,51.04
2022-08-17T23:03:56.364Z,51.07
2022-08-17T23:06:24.453Z,51.08
2022-08-17T23:08:56.605Z,50.99
2022-08-17T23:11:36.731Z,51.25
2022-08-17T23:14:15.356Z,51.32
2022-08-17T23:16:43.491Z,51.44
2022-08-17T23:19:12.744Z,51.69
2022-08-17T23:21:41.952Z,51.60
2022-08-17T23:24:11.276Z,51.54
2022-08-17T23:26:41.371Z,51.68
2022-08-17T23:29:09.544Z,51.80
2022-08-17T23:31:39.166Z,51.92
2022-08-17T23:34:09.397Z,52.06
2022-08-17T23:36:38.164Z,52.30
2022-08-17T23:39:06.587Z,52.39
2022-08-17T23:41:36.654Z,52.55
2022-08-17T23:44:05.639Z,52.66
2022-08-17T23:46:34.710Z,52.79
2022-08-17T23:49:03.529Z,52.84
2022-08-17T23:51:34.783Z,52.92
2022-08-17T23:54:08.166Z,53.13
2022-08-17T23:56:44.533Z,53.00
2022-08-17T23:59:13.674Z,53.18
